Time;durP1;ratioP1;P1;durP2;ratioP2;P2;SDS_P1;SDS_P2;PMS_P1;PMS_P2;Temp;Humidity;BMP_temperature;BMP_pressure;BME280_temperature;BME280_humidity;BME280_pressure;Samples;Min_cycle;Max_cycle;Signal;HPM_P1;HPM_P2
2021/08/31 00:00:52;;;;;;;24.87;23.13;;;16.20;93.90;;;;;;5003821;28;20465;-68
2021/08/31 00:03:20;;;;;;;25.13;23.47;;;16.20;93.90;;;;;;5007087;28;20533;-68
2021/08/31 00:05:47;;;;;;;23.93;22.00;;;16.30;93.80;;;;;;5008680;28;20457;-68
2021/08/31 00:08:14;;;;;;;24.40;22.80;;;16.30;93.30;;;;;;5006881;28;20477;-68
2021/08/31 00:10:41;;;;;;;25.93;23.77;;;16.40;93.20;;;;;;4998697;28;20545;-67
2021/08/31 00:13:08;;;;;;;24.90;23.20;;;16.40;92.90;;;;;;5004327;28;20456;-68
2021/08/31 00:15:36;;;;;;;25.40;23.50;;;16.40;92.90;;;;;;4998306;28;20482;-68
2021/08/31 00:18:03;;;;;;;24.67;22.67;;;16.40;93.00;;;;;;4999938;28;20506;-68
2021/08/31 00:20:31;;;;;;;24.67;23.00;;;16.40;93.00;;;;;;4999360;28;20484;-68
2021/08/31 00:22:59;;;;;;;25.00;23.20;;;16.40;93.20;;;;;;5001523;28;20469;-67
2021/08/31 00:25:26;;;;;;;24.00;22.40;;;16.40;93.30;;;;;;5008392;28;20468;-68
2021/08/31 00:27:52;;;;;;;24.43;22.70;;;16.40;93.30;;;;;;5007155;28;20479;-68
2021/08/31 00:30:19;;;;;;;25.23;23.30;;;16.40;93.10;;;;;;4999360;28;20496;-68
2021/08/31 00:32:46;;;;;;;25.47;23.60;;;16.40;93.10;;;;;;5008492;28;20465;-68
2021/08/31 00:35:13;;;;;;;25.10;23.40;;;16.30;93.10;;;;;;4994520;28;20828;-68
2021/08/31 00:37:41;;;;;;;25.63;23.77;;;16.30;93.20;;;;;;4998255;28;21174;-68
2021/08/31 00:40:10;;;;;;;25.33;23.40;;;16.30;93.10;;;;;;4998452;28;20462;-67
2021/08/31 00:42:37;;;;;;;26.47;24.57;;;16.20;93.40;;;;;;5001723;28;20510;-67
2021/08/31 00:45:04;;;;;;;25.67;23.77;;;16.20;93.70;;;;;;5002678;28;20461;-68
2021/08/31 00:47:31;;;;;;;26.57;24.43;;;16.30;93.60;;;;;;5007694;28;21065;-67
2021/08/31 00:49:58;;;;;;;26.60;24.60;;;16.30;93.50;;;;;;4996225;28;20983;-68
2021/08/31 00:52:25;;;;;;;24.67;23.00;;;16.30;93.60;;;;;;4997680;28;20515;-68
2021/08/31 00:54:54;;;;;;;27.30;25.10;;;16.30;93.40;;;;;;5002900;28;20488;-68
2021/08/31 00:57:22;;;;;;;26.00;23.80;;;16.30;93.40;;;;;;5010364;28;20457;-68
2021/08/31 00:59:49;;;;;;;25.40;23.60;;;16.30;93.40;;;;;;4997865;28;20492;-68
2021/08/31 01:02:16;;;;;;;25.20;23.40;;;16.30;93.40;;;;;;4991594;28;20466;-67
2021/08/31 01:04:43;;;;;;;26.70;24.70;;;16.30;93.50;;;;;;5000378;28;20458;-68
2021/08/31 01:07:10;;;;;;;27.60;25.40;;;16.30;93.50;;;;;;5009563;28;20469;-68
2021/08/31 01:09:38;;;;;;;27.53;25.43;;;16.30;93.40;;;;;;5003318;28;20490;-68
2021/08/31 01:12:07;;;;;;;26.67;24.70;;;16.30;93.40;;;;;;5003310;28;20463;-68
2021/08/31 01:14:34;;;;;;;27.53;25.43;;;16.30;93.70;;;;;;4999298;28;20877;-67
2021/08/31 01:17:01;;;;;;;28.10;26.07;;;16.20;93.80;;;;;;5007695;28;20792;-68
2021/08/31 01:19:31;;;;;;;29.90;27.50;;;16.30;93.80;;;;;;5000763;28;20496;-68
2021/08/31 01:22:00;;;;;;;29.23;26.87;;;16.20;93.80;;;;;;5004257;28;20460;-68
2021/08/31 01:24:27;;;;;;;29.40;27.00;;;16.20;93.90;;;;;;4998388;28;20528;-67
2021/08/31 01:26:56;;;;;;;29.10;26.80;;;16.20;93.90;;;;;;4995794;28;20521;-68
2021/08/31 01:29:24;;;;;;;28.63;26.30;;;16.20;93.90;;;;;;5003888;28;20487;-67
2021/08/31 01:31:51;;;;;;;28.07;25.97;;;16.30;93.60;;;;;;5000142;28;20467;-67
2021/08/31 01:34:18;;;;;;;28.33;26.23;;;16.20;94.00;;;;;;5001544;28;20483;-67
2021/08/31 01:36:45;;;;;;;29.00;26.60;;;16.30;93.90;;;;;;5008077;28;20468;-67
2021/08/31 01:39:13;;;;;;;29.53;27.17;;;16.10;94.00;;;;;;5006373;28;20483;-68
2021/08/31 01:41:40;;;;;;;30.47;27.97;;;16.10;94.60;;;;;;5001489;28;20944;-68
2021/08/31 01:44:09;;;;;;;30.50;28.00;;;16.00;95.00;;;;;;5002905;28;20799;-68
2021/08/31 01:46:36;;;;;;;30.67;28.27;;;16.00;94.90;;;;;;5009139;28;20484;-68
2021/08/31 01:49:03;;;;;;;32.73;29.90;;;16.00;95.10;;;;;;4995765;28;20484;-68
2021/08/31 01:51:30;;;;;;;31.37;28.77;;;16.00;95.20;;;;;;4999950;28;20476;-68
2021/08/31 01:53:56;;;;;;;32.27;29.40;;;16.00;95.00;;;;;;4996250;28;20457;-68
2021/08/31 01:56:23;;;;;;;33.87;30.97;;;16.00;95.20;;;;;;5007748;28;20466;-69
2021/08/31 01:58:50;;;;;;;32.83;30.03;;;16.10;94.90;;;;;;5003361;28;20518;-69
2021/08/31 02:01:19;;;;;;;32.97;29.90;;;16.00;94.60;;;;;;5001017;28;20472;-69
2021/08/31 02:03:46;;;;;;;32.37;29.37;;;16.00;94.90;;;;;;4999930;28;20539;-69
2021/08/31 02:06:13;;;;;;;31.07;28.40;;;16.00;95.10;;;;;;4998012;28;20465;-69
2021/08/31 02:08:39;;;;;;;31.90;29.30;;;16.00;94.80;;;;;;4993732;28;20485;-69
2021/08/31 02:11:06;;;;;;;32.93;30.13;;;15.90;95.10;;;;;;5009493;28;20484;-69
2021/08/31 02:13:34;;;;;;;30.70;28.07;;;15.90;94.90;;;;;;5000263;28;20458;-69
2021/08/31 02:16:01;;;;;;;30.33;28.03;;;15.90;94.90;;;;;;5009177;28;21028;-69
2021/08/31 02:18:29;;;;;;;31.70;29.10;;;15.90;95.10;;;;;;4995347;28;20883;-69
2021/08/31 02:20:56;;;;;;;31.07;28.23;;;15.80;95.60;;;;;;4993813;28;20476;-69
2021/08/31 02:23:23;;;;;;;29.40;27.10;;;15.90;95.50;;;;;;4994567;28;20972;-69
2021/08/31 02:25:50;;;;;;;28.73;26.53;;;15.90;95.40;;;;;;5009267;28;20477;-69
2021/08/31 02:28:16;;;;;;;29.60;27.20;;;15.90;95.10;;;;;;4992974;28;20488;-68
2021/08/31 02:30:43;;;;;;;31.10;28.50;;;15.90;95.10;;;;;;4991580;28;20501;-68
2021/08/31 02:33:10;;;;;;;29.40;27.10;;;16.00;94.90;;;;;;4997538;28;20462;-68
2021/08/31 02:35:38;;;;;;;31.07;28.47;;;16.00;94.70;;;;;;5007127;28;20491;-68
2021/08/31 02:38:05;;;;;;;30.17;27.57;;;16.00;94.80;;;;;;4991137;28;20474;-67
2021/08/31 02:40:32;;;;;;;31.10;28.53;;;16.00;94.70;;;;;;5003840;28;20475;-68
2021/08/31 02:42:59;;;;;;;30.20;27.70;;;16.00;94.70;;;;;;4994204;28;20462;-68
2021/08/31 02:45:26;;;;;;;29.30;26.90;;;16.10;94.70;;;;;;5006569;28;20453;-68
2021/08/31 02:47:53;;;;;;;30.30;27.50;;;16.10;94.60;;;;;;4989941;28;20478;-68
2021/08/31 02:50:20;;;;;;;28.73;26.40;;;16.10;94.60;;;;;;5004754;28;20583;-69
2021/08/31 02:52:49;;;;;;;30.27;27.90;;;16.10;94.40;;;;;;4997503;28;20462;-69
2021/08/31 02:55:16;;;;;;;29.77;27.57;;;15.90;94.20;;;;;;5003270;28;21143;-69
2021/08/31 02:57:43;;;;;;;29.60;27.30;;;15.80;94.80;;;;;;4991682;28;20472;-69
2021/08/31 03:00:17;;;;;;;31.17;28.67;;;15.80;94.80;;;;;;5006127;28;20464;-69
2021/08/31 03:02:44;;;;;;;30.17;27.87;;;15.90;94.60;;;;;;4992429;28;20463;-69
2021/08/31 03:05:12;;;;;;;30.70;28.20;;;15.90;94.50;;;;;;5001936;28;20461;-69
2021/08/31 03:07:39;;;;;;;30.50;28.00;;;15.80;94.50;;;;;;5004884;28;20473;-67
2021/08/31 03:10:08;;;;;;;31.73;29.23;;;15.80;94.90;;;;;;5008594;28;20845;-68
2021/08/31 03:12:35;;;;;;;30.77;28.27;;;15.80;95.00;;;;;;4997158;28;20465;-68
2021/08/31 03:15:02;;;;;;;31.00;28.37;;;15.80;95.00;;;;;;4992484;28;21021;-68
2021/08/31 03:17:29;;;;;;;30.00;27.57;;;15.80;94.90;;;;;;5000409;28;20454;-67
2021/08/31 03:19:56;;;;;;;31.47;28.77;;;15.90;94.70;;;;;;4993780;28;20458;-68
2021/08/31 03:22:23;;;;;;;30.57;28.13;;;15.90;94.70;;;;;;4991048;28;20831;-68
2021/08/31 03:24:50;;;;;;;29.27;27.10;;;15.90;94.80;;;;;;4992460;28;20464;-68
2021/08/31 03:27:18;;;;;;;31.07;28.57;;;15.90;94.80;;;;;;5001543;28;20457;-68
2021/08/31 03:29:45;;;;;;;30.87;28.43;;;15.90;94.70;;;;;;5000707;28;21002;-68
2021/08/31 03:32:12;;;;;;;31.60;29.20;;;15.90;94.60;;;;;;5001450;28;20462;-68
2021/08/31 03:34:39;;;;;;;32.20;29.67;;;16.00;94.40;;;;;;4992178;28;20465;-68
2021/08/31 03:37:06;;;;;;;35.47;32.77;;;15.90;94.60;;;;;;4999537;28;20975;-68
2021/08/31 03:39:34;;;;;;;31.87;29.37;;;15.90;94.70;;;;;;4999066;28;20507;-68
2021/08/31 03:42:01;;;;;;;32.17;29.70;;;16.00;94.70;;;;;;5000673;28;20515;-68
2021/08/31 03:44:29;;;;;;;35.10;32.10;;;16.00;94.70;;;;;;4996872;28;20471;-68
2021/08/31 03:46:56;;;;;;;37.80;34.70;;;16.00;94.60;;;;;;5006142;28;20468;-67
2021/08/31 03:49:23;;;;;;;34.57;31.87;;;16.00;94.40;;;;;;4998882;28;20484;-68
2021/08/31 03:51:50;;;;;;;35.27;32.37;;;16.00;94.40;;;;;;5007263;28;20475;-68
2021/08/31 03:54:18;;;;;;;36.33;33.30;;;15.90;94.70;;;;;;4993263;28;20455;-68
2021/08/31 03:56:45;;;;;;;35.07;32.00;;;16.00;94.60;;;;;;4997119;28;20481;-68
2021/08/31 03:59:12;;;;;;;35.47;32.20;;;16.00;94.40;;;;;;5001302;28;20559;-68
2021/08/31 04:01:40;;;;;;;34.93;32.13;;;16.00;94.30;;;;;;4997664;28;21047;-67
2021/08/31 04:04:07;;;;;;;32.57;29.87;;;16.00;94.00;;;;;;5001652;28;20464;-67
2021/08/31 04:06:34;;;;;;;36.60;33.50;;;16.00;94.10;;;;;;5000115;28;20527;-68
2021/08/31 04:09:00;;;;;;;31.33;28.93;;;16.00;94.00;;;;;;5002470;28;20474;-68
2021/08/31 04:11:27;;;;;;;33.50;30.80;;;16.00;94.20;;;;;;5007191;28;20449;-68
2021/08/31 04:13:54;;;;;;;34.10;31.10;;;16.00;94.20;;;;;;5002464;28;20455;-68
2021/08/31 04:16:21;;;;;;;35.53;31.83;;;16.00;94.20;;;;;;5000828;28;20881;-67
2021/08/31 04:18:50;;;;;;;33.77;30.80;;;16.00;94.30;;;;;;4994596;28;20488;-68
2021/08/31 04:21:16;;;;;;;35.30;32.70;;;16.10;94.50;;;;;;5008066;28;20461;-68
2021/08/31 04:23:43;;;;;;;35.50;32.30;;;16.00;94.50;;;;;;5005463;28;20472;-67
2021/08/31 04:26:10;;;;;;;37.60;34.37;;;16.10;94.30;;;;;;5009579;28;20457;-68
2021/08/31 04:28:37;;;;;;;34.60;31.63;;;16.00;94.10;;;;;;4995696;28;20561;-68
2021/08/31 04:31:04;;;;;;;35.40;32.23;;;16.10;94.10;;;;;;4994978;28;20457;-69
2021/08/31 04:33:31;;;;;;;36.73;33.43;;;16.00;94.00;;;;;;4995956;28;21322;-68
2021/08/31 04:35:59;;;;;;;34.17;31.33;;;16.00;94.20;;;;;;5005372;28;20584;-69
2021/08/31 04:38:26;;;;;;;35.73;32.63;;;16.10;94.20;;;;;;4999001;28;20489;-68
2021/08/31 04:40:53;;;;;;;37.43;34.40;;;16.10;94.00;;;;;;5011218;28;20835;-68
2021/08/31 04:43:21;;;;;;;33.47;30.77;;;16.00;94.10;;;;;;5000322;28;21051;-68
2021/08/31 04:45:48;;;;;;;34.80;32.03;;;16.00;94.20;;;;;;5004064;28;20489;-67
2021/08/31 04:48:15;;;;;;;32.70;30.20;;;16.00;94.10;;;;;;4998313;28;20514;-68
2021/08/31 04:50:42;;;;;;;35.50;32.60;;;15.90;94.30;;;;;;5006443;28;20468;-68
2021/08/31 04:53:10;;;;;;;36.37;33.10;;;15.90;94.40;;;;;;4997979;28;20548;-67
2021/08/31 04:55:37;;;;;;;32.47;29.87;;;15.90;94.40;;;;;;5001460;28;20483;-68
2021/08/31 04:58:07;;;;;;;30.03;27.53;;;16.00;94.40;;;;;;4993495;28;20481;-69
2021/08/31 05:00:34;;;;;;;32.63;30.17;;;16.00;94.60;;;;;;5004624;28;20478;-68
2021/08/31 05:03:01;;;;;;;35.97;32.97;;;16.00;94.50;;;;;;5007279;28;20464;-69
2021/08/31 05:05:28;;;;;;;35.53;32.63;;;16.00;94.40;;;;;;5007008;28;22217;-69
2021/08/31 05:07:55;;;;;;;32.60;30.03;;;16.00;94.30;;;;;;5009109;28;20477;-69
2021/08/31 05:10:23;;;;;;;33.93;31.00;;;16.00;94.00;;;;;;4996460;28;20468;-70
2021/08/31 05:12:50;;;;;;;36.17;33.17;;;16.10;93.90;;;;;;5004640;28;20465;-71
2021/08/31 05:15:17;;;;;;;34.73;31.97;;;16.10;93.10;;;;;;5006780;28;20472;-71
2021/08/31 05:17:45;;;;;;;33.80;31.03;;;16.10;93.30;;;;;;5002311;28;20558;-72
2021/08/31 05:20:13;;;;;;;32.47;29.83;;;16.10;93.40;;;;;;5004081;28;20471;-69
2021/08/31 05:22:39;;;;;;;31.80;29.10;;;16.10;93.10;;;;;;5004528;28;21296;-69
2021/08/31 05:25:07;;;;;;;34.00;31.37;;;16.00;93.60;;;;;;5007401;28;20468;-70
2021/08/31 05:27:35;;;;;;;34.20;31.10;;;15.90;94.00;;;;;;5005337;28;20463;-69
2021/08/31 05:30:02;;;;;;;33.13;30.47;;;15.90;94.30;;;;;;5002043;28;20554;-70
2021/08/31 05:32:29;;;;;;;31.83;29.13;;;16.00;94.00;;;;;;5006936;28;20552;-69
2021/08/31 05:34:56;;;;;;;34.13;31.20;;;16.00;93.80;;;;;;5004207;28;20467;-69
2021/08/31 05:37:23;;;;;;;32.07;29.43;;;15.90;94.10;;;;;;4996346;28;20495;-68
2021/08/31 05:39:50;;;;;;;34.80;32.10;;;15.90;94.10;;;;;;5002626;28;20572;-68
2021/08/31 05:42:16;;;;;;;33.53;30.83;;;15.90;94.10;;;;;;4998478;28;20968;-68
2021/08/31 05:44:45;;;;;;;33.07;30.07;;;15.90;94.20;;;;;;4999631;28;20452;-69
2021/08/31 05:47:12;;;;;;;35.10;32.37;;;16.00;94.00;;;;;;4999307;28;20475;-68
2021/08/31 05:49:40;;;;;;;32.43;29.73;;;16.20;93.10;;;;;;4995439;28;20484;-69
2021/08/31 05:52:07;;;;;;;32.07;29.57;;;16.20;92.80;;;;;;4992979;28;20580;-68
2021/08/31 05:54:34;;;;;;;33.77;30.80;;;16.00;93.10;;;;;;5009467;28;20586;-68
2021/08/31 05:57:06;;;;;;;33.33;30.63;;;16.00;93.40;;;;;;4996969;28;20483;-70
2021/08/31 05:59:33;;;;;;;36.40;33.47;;;16.00;93.30;;;;;;5000883;28;20492;-70
2021/08/31 06:02:02;;;;;;;34.57;31.70;;;15.90;94.10;;;;;;4996993;28;20561;-69
2021/08/31 06:04:28;;;;;;;34.27;31.17;;;15.90;94.00;;;;;;5009822;28;20487;-70
2021/08/31 06:06:55;;;;;;;32.93;30.23;;;15.80;94.00;;;;;;4998839;28;20468;-68
2021/08/31 06:09:22;;;;;;;33.40;30.80;;;15.80;94.40;;;;;;4999575;28;20477;-68
2021/08/31 06:11:51;;;;;;;32.43;29.73;;;15.90;94.40;;;;;;5007459;28;20479;-68
2021/08/31 06:14:18;;;;;;;30.43;27.97;;;15.90;94.00;;;;;;5002318;28;20559;-68
2021/08/31 06:16:45;;;;;;;32.37;29.97;;;16.00;93.90;;;;;;4999431;28;20566;-69
2021/08/31 06:19:14;;;;;;;31.07;28.50;;;16.10;93.20;;;;;;4995270;28;20489;-68
2021/08/31 06:21:41;;;;;;;31.70;29.10;;;16.10;92.90;;;;;;5008854;28;20544;-70
2021/08/31 06:24:08;;;;;;;32.87;30.17;;;16.10;92.90;;;;;;4997629;28;20469;-69
2021/08/31 06:26:35;;;;;;;31.40;28.90;;;16.10;93.20;;;;;;5000665;28;20472;-70
2021/08/31 06:29:05;;;;;;;30.90;28.50;;;16.00;93.60;;;;;;5006208;28;20564;-69
2021/08/31 06:31:32;;;;;;;30.10;27.80;;;16.00;93.40;;;;;;5008825;28;20462;-71
2021/08/31 06:33:58;;;;;;;31.43;29.03;;;16.20;93.30;;;;;;4998289;28;20556;-70
2021/08/31 06:36:27;;;;;;;30.83;28.33;;;16.20;92.90;;;;;;5014179;28;20485;-71
2021/08/31 06:38:54;;;;;;;30.87;28.47;;;16.20;92.70;;;;;;5010118;28;20482;-72
2021/08/31 06:41:21;;;;;;;30.33;28.03;;;16.30;92.20;;;;;;5012653;28;20888;-72
2021/08/31 06:43:51;;;;;;;31.10;28.57;;;16.30;92.50;;;;;;5009363;28;20472;-72
2021/08/31 06:46:18;;;;;;;31.80;29.50;;;16.30;92.40;;;;;;5013692;28;20479;-69
2021/08/31 06:48:46;;;;;;;28.77;26.63;;;16.30;92.20;;;;;;5003383;28;20475;-70
2021/08/31 06:51:14;;;;;;;31.37;28.97;;;16.50;91.40;;;;;;5011844;28;20464;-70
2021/08/31 06:53:43;;;;;;;30.17;28.00;;;16.50;91.20;;;;;;5013450;28;21186;-70
2021/08/31 06:56:10;;;;;;;29.37;27.27;;;16.50;91.10;;;;;;5014870;28;20561;-70
2021/08/31 06:58:37;;;;;;;28.50;26.47;;;16.80;90.90;;;;;;4993983;28;20588;-70
2021/08/31 07:01:04;;;;;;;30.23;28.23;;;16.80;90.10;;;;;;5000471;28;20461;-68
2021/08/31 07:03:31;;;;;;;32.10;29.90;;;16.60;90.10;;;;;;5003829;28;20471;-68
2021/08/31 07:05:58;;;;;;;31.20;28.60;;;16.60;90.20;;;;;;4993948;28;20456;-67
2021/08/31 07:08:25;;;;;;;29.43;27.20;;;16.70;90.20;;;;;;5001365;28;20481;-68
2021/08/31 07:10:53;;;;;;;28.60;26.40;;;16.70;90.00;;;;;;5001282;28;20547;-67
2021/08/31 07:13:20;;;;;;;30.17;27.90;;;16.50;90.50;;;;;;4997663;28;20945;-68
2021/08/31 07:15:47;;;;;;;30.37;28.17;;;16.40;90.80;;;;;;5006857;28;21023;-68
2021/08/31 07:18:14;;;;;;;27.40;25.50;;;16.60;90.50;;;;;;5003806;28;20481;-68
2021/08/31 07:20:42;;;;;;;29.73;27.53;;;16.70;89.80;;;;;;4999374;28;20507;-68
2021/08/31 07:23:11;;;;;;;28.50;26.60;;;16.70;89.80;;;;;;4997102;28;20549;-68
2021/08/31 07:25:38;;;;;;;28.47;26.57;;;16.80;89.00;;;;;;5006207;28;20469;-68
2021/08/31 07:28:07;;;;;;;28.30;26.27;;;16.80;89.20;;;;;;5006310;28;20842;-68
2021/08/31 07:30:34;;;;;;;27.63;25.73;;;16.90;89.30;;;;;;4999975;28;20540;-68
2021/08/31 07:33:02;;;;;;;26.80;24.93;;;16.80;88.40;;;;;;4995356;28;20468;-68
2021/08/31 07:35:29;;;;;;;27.47;25.63;;;16.90;88.60;;;;;;5004912;28;21008;-68
2021/08/31 07:37:56;;;;;;;27.50;25.50;;;17.00;88.20;;;;;;5006036;28;20492;-68
2021/08/31 07:40:23;;;;;;;27.13;25.33;;;16.90;88.00;;;;;;5001007;28;20458;-68
2021/08/31 07:42:52;;;;;;;27.07;25.37;;;16.90;88.10;;;;;;4996116;28;20544;-71
2021/08/31 07:45:20;;;;;;;27.50;25.80;;;17.10;87.80;;;;;;4996369;28;20469;-68
2021/08/31 07:47:47;;;;;;;28.47;26.27;;;17.10;87.50;;;;;;5000923;28;20461;-68
2021/08/31 07:50:14;;;;;;;29.73;27.60;;;17.10;87.40;;;;;;5004043;28;20461;-68
2021/08/31 07:52:41;;;;;;;27.50;25.70;;;17.30;86.90;;;;;;5002510;28;20973;-68
2021/08/31 07:55:10;;;;;;;28.10;26.20;;;17.40;85.70;;;;;;5002556;28;20527;-68
2021/08/31 07:57:38;;;;;;;27.27;25.57;;;17.40;85.30;;;;;;5005850;28;20484;-68
2021/08/31 08:00:07;;;;;;;27.57;25.67;;;17.20;86.00;;;;;;5001044;28;20462;-68
2021/08/31 08:02:35;;;;;;;27.13;25.33;;;17.00;86.60;;;;;;5004219;28;21248;-68
2021/08/31 08:05:04;;;;;;;30.00;27.50;;;17.00;86.80;;;;;;5020893;28;20484;-67
2021/08/31 08:07:31;;;;;;;27.90;25.97;;;17.10;86.60;;;;;;5016414;28;20462;-70
2021/08/31 08:09:58;;;;;;;26.63;24.83;;;17.10;87.00;;;;;;5012718;28;20453;-72
2021/08/31 08:12:25;;;;;;;27.50;25.60;;;17.20;87.10;;;;;;5015081;28;20552;-68
2021/08/31 08:14:52;;;;;;;28.97;27.13;;;17.40;86.80;;;;;;5019712;28;20467;-70
2021/08/31 08:17:20;;;;;;;28.47;26.00;;;17.60;85.30;;;;;;5013055;28;21004;-70
2021/08/31 08:19:49;;;;;;;28.27;26.37;;;17.50;85.10;;;;;;5018582;28;20472;-70
2021/08/31 08:22:17;;;;;;;28.60;26.53;;;17.40;85.70;;;;;;5012111;28;20463;-71
2021/08/31 08:24:46;;;;;;;28.47;26.47;;;17.50;85.00;;;;;;5018964;28;20481;-70
2021/08/31 08:27:17;;;;;;;28.10;26.30;;;17.50;85.40;;;;;;5017220;28;20470;-69
2021/08/31 08:29:44;;;;;;;27.60;25.90;;;17.40;86.00;;;;;;5017319;28;20534;-70
2021/08/31 08:32:12;;;;;;;26.27;24.50;;;17.40;85.90;;;;;;5006990;28;20580;-69
2021/08/31 08:34:41;;;;;;;28.80;26.87;;;17.50;86.10;;;;;;5014894;28;20580;-70
2021/08/31 08:37:09;;;;;;;30.70;28.70;;;17.50;86.10;;;;;;5014975;28;20481;-70
2021/08/31 08:39:36;;;;;;;29.60;27.60;;;17.60;85.30;;;;;;5009877;28;20550;-71
2021/08/31 08:42:05;;;;;;;28.23;26.37;;;17.60;84.90;;;;;;5016326;28;20538;-70
2021/08/31 08:44:33;;;;;;;27.20;25.37;;;17.40;85.70;;;;;;5014042;28;21158;-70
2021/08/31 08:47:00;;;;;;;28.30;26.50;;;17.30;86.00;;;;;;5013979;28;20465;-69
2021/08/31 08:49:28;;;;;;;29.27;27.47;;;17.30;85.90;;;;;;5014547;28;20513;-70
2021/08/31 08:51:57;;;;;;;28.87;26.83;;;17.30;85.90;;;;;;5014004;28;20456;-71
2021/08/31 08:54:25;;;;;;;28.87;27.13;;;17.50;85.50;;;;;;5012748;28;20452;-68
2021/08/31 08:56:55;;;;;;;28.60;26.80;;;17.40;86.00;;;;;;5011309;28;21400;-70
2021/08/31 08:59:23;;;;;;;28.37;26.30;;;17.70;85.70;;;;;;5003434;28;20467;-69
2021/08/31 09:01:52;;;;;;;28.37;26.40;;;17.80;84.90;;;;;;5001391;28;20475;-70
2021/08/31 09:04:21;;;;;;;28.43;26.60;;;17.90;84.10;;;;;;5003930;28;21329;-69
2021/08/31 09:06:49;;;;;;;27.63;25.87;;;18.10;83.60;;;;;;5000917;28;20455;-70
2021/08/31 09:09:16;;;;;;;28.90;26.80;;;18.20;83.40;;;;;;5007824;28;20484;-69
2021/08/31 09:11:46;;;;;;;27.87;26.10;;;18.10;83.50;;;;;;5005387;28;21043;-69
2021/08/31 09:14:23;;;;;;;28.90;26.73;;;18.20;82.90;;;;;;5008870;28;20477;-69
2021/08/31 09:16:53;;;;;;;30.20;28.20;;;18.10;82.90;;;;;;4997101;28;20548;-70
2021/08/31 09:19:30;;;;;;;28.90;27.10;;;18.10;83.40;;;;;;4995215;28;20485;-69
2021/08/31 09:22:12;;;;;;;29.63;27.80;;;18.30;82.60;;;;;;5001587;28;20459;-69
2021/08/31 09:24:39;;;;;;;27.83;25.67;;;18.40;81.10;;;;;;5001972;28;20472;-69
2021/08/31 09:27:08;;;;;;;29.50;27.50;;;18.30;80.20;;;;;;5002788;28;20457;-69
2021/08/31 09:29:40;;;;;;;30.80;28.87;;;18.30;80.00;;;;;;5003371;28;20947;-69
2021/08/31 09:32:10;;;;;;;28.23;26.23;;;18.30;79.40;;;;;;5005225;28;20474;-69
2021/08/31 09:34:43;;;;;;;28.30;26.53;;;18.30;79.80;;;;;;4992386;28;20464;-70
2021/08/31 09:37:35;;;;;;;30.60;28.70;;;18.40;80.00;;;;;;5003545;28;20491;-69
2021/08/31 09:40:14;;;;;;;27.43;25.83;;;18.50;79.50;;;;;;5002095;28;20958;-69
2021/08/31 09:43:03;;;;;;;28.10;26.30;;;18.60;78.70;;;;;;4995585;28;21037;-69
2021/08/31 09:45:32;;;;;;;30.10;28.10;;;18.80;77.80;;;;;;4998165;28;20491;-69
2021/08/31 09:48:00;;;;;;;28.13;26.40;;;18.70;78.10;;;;;;5006418;28;20507;-70
2021/08/31 09:50:39;;;;;;;30.80;28.87;;;18.70;78.00;;;;;;4999062;28;20475;-69
2021/08/31 09:53:17;;;;;;;29.03;27.03;;;18.80;77.40;;;;;;5007712;28;20954;-70
2021/08/31 09:55:45;;;;;;;29.00;27.17;;;18.90;77.20;;;;;;5006360;28;20448;-69
2021/08/31 09:58:21;;;;;;;28.37;26.73;;;18.90;77.20;;;;;;4999171;28;20500;-69
2021/08/31 10:00:49;;;;;;;30.00;28.10;;;19.00;76.90;;;;;;5001032;28;20472;-69
2021/08/31 10:03:17;;;;;;;31.10;29.00;;;19.10;75.90;;;;;;5007876;28;20465;-69
2021/08/31 10:05:45;;;;;;;30.90;28.87;;;19.20;75.20;;;;;;5007445;28;20456;-70
2021/08/31 10:08:13;;;;;;;29.63;27.73;;;19.10;75.30;;;;;;5001118;28;20481;-70
2021/08/31 10:10:44;;;;;;;32.87;30.73;;;19.00;76.20;;;;;;5002965;28;20468;-70
2021/08/31 10:13:13;;;;;;;32.57;30.10;;;18.90;77.40;;;;;;5007349;28;20461;-69
2021/08/31 10:15:44;;;;;;;30.97;29.17;;;18.80;78.50;;;;;;5006175;28;20460;-70
2021/08/31 10:18:12;;;;;;;29.40;27.60;;;18.80;78.10;;;;;;4999494;28;20546;-69
2021/08/31 10:20:44;;;;;;;29.40;27.60;;;18.80;77.70;;;;;;4993884;28;20827;-69
2021/08/31 10:23:13;;;;;;;29.63;27.60;;;18.90;77.90;;;;;;4994178;28;20521;-69
2021/08/31 10:25:40;;;;;;;30.33;28.33;;;19.00;77.00;;;;;;4998035;28;20468;-69
2021/08/31 10:28:23;;;;;;;29.60;27.70;;;19.10;77.50;;;;;;4991321;28;21227;-69
2021/08/31 10:30:52;;;;;;;31.87;29.70;;;19.20;77.20;;;;;;4994725;28;20895;-69
2021/08/31 10:33:39;;;;;;;32.77;30.50;;;19.20;77.50;;;;;;5007434;28;20471;-69
2021/08/31 10:36:08;;;;;;;30.27;28.37;;;19.40;77.20;;;;;;5006071;28;20554;-69
2021/08/31 10:39:05;;;;;;;31.50;29.60;;;19.30;77.00;;;;;;5002087;28;20484;-70
2021/08/31 10:41:44;;;;;;;33.40;30.83;;;19.00;77.80;;;;;;5000573;28;20484;-69
2021/08/31 10:44:28;;;;;;;31.00;29.00;;;19.10;77.40;;;;;;4995073;28;20568;-69
2021/08/31 10:47:07;;;;;;;29.33;27.50;;;19.10;77.80;;;;;;5004485;28;20819;-69
2021/08/31 10:50:13;;;;;;;31.43;29.63;;;19.20;77.80;;;;;;4993748;28;20608;-70
2021/08/31 10:52:41;;;;;;;31.83;29.83;;;19.20;77.60;;;;;;5005882;28;20483;-69
2021/08/31 10:55:35;;;;;;;29.77;27.87;;;19.00;77.60;;;;;;5005364;28;20481;-68
2021/08/31 10:58:04;;;;;;;29.03;27.13;;;18.80;79.00;;;;;;4998184;28;20489;-69
2021/08/31 11:01:01;;;;;;;30.43;28.23;;;18.90;78.60;;;;;;5005291;28;20476;-67
2021/08/31 11:03:40;;;;;;;31.20;29.30;;;19.20;78.30;;;;;;5007036;28;20993;-67
2021/08/31 11:06:37;;;;;;;32.40;30.17;;;19.20;77.60;;;;;;4996343;28;20789;-67
2021/08/31 11:09:22;;;;;;;33.40;31.40;;;19.50;75.50;;;;;;5004162;28;20475;-68
2021/08/31 11:12:14;;;;;;;30.87;29.07;;;19.50;75.10;;;;;;5007784;28;20452;-67
2021/08/31 11:14:53;;;;;;;31.33;29.43;;;19.60;73.80;;;;;;4998745;28;20469;-67
2021/08/31 11:17:31;;;;;;;33.10;31.00;;;19.60;73.60;;;;;;5001732;28;20488;-67
2021/08/31 11:20:27;;;;;;;32.10;30.13;;;19.70;73.60;;;;;;4997148;28;20454;-67
2021/08/31 11:23:06;;;;;;;31.83;29.70;;;19.60;73.70;;;;;;4994868;28;21279;-67
2021/08/31 11:25:35;;;;;;;31.87;30.17;;;19.80;73.90;;;;;;5004792;28;20468;-67
2021/08/31 11:28:04;;;;;;;32.37;30.10;;;19.80;72.00;;;;;;5003607;28;20472;-67
2021/08/31 11:30:47;;;;;;;29.73;28.00;;;19.60;72.60;;;;;;5006976;28;20555;-68
2021/08/31 11:33:17;;;;;;;31.60;29.80;;;19.70;72.80;;;;;;4993204;28;20457;-67
2021/08/31 11:35:46;;;;;;;33.03;30.93;;;19.80;73.10;;;;;;5007140;28;20460;-68
2021/08/31 11:38:13;;;;;;;30.23;28.37;;;20.00;72.80;;;;;;5004549;28;20974;-68
2021/08/31 11:40:42;;;;;;;32.90;30.83;;;20.20;72.80;;;;;;5012071;28;20841;-68
2021/08/31 11:43:09;;;;;;;31.77;28.90;;;20.20;72.50;;;;;;5007068;28;20448;-67
2021/08/31 11:45:39;;;;;;;31.27;29.37;;;20.10;72.90;;;;;;5007174;28;20460;-68
2021/08/31 11:48:07;;;;;;;30.83;29.03;;;20.20;72.90;;;;;;5007266;28;20472;-68
2021/08/31 11:50:35;;;;;;;31.57;29.47;;;20.30;73.00;;;;;;4994723;28;20797;-67
2021/08/31 11:53:16;;;;;;;32.57;30.57;;;20.40;71.70;;;;;;5008754;28;20544;-68
2021/08/31 11:55:43;;;;;;;31.13;29.23;;;20.30;71.50;;;;;;5006148;28;20460;-68
2021/08/31 11:58:10;;;;;;;33.10;30.90;;;20.30;71.70;;;;;;5010021;28;20489;-68
2021/08/31 12:00:44;;;;;;;31.37;29.47;;;20.50;71.60;;;;;;5006587;28;20471;-68
2021/08/31 12:03:26;;;;;;;32.80;30.90;;;20.50;71.40;;;;;;5007947;28;20551;-68
2021/08/31 12:05:57;;;;;;;32.63;30.73;;;20.50;70.70;;;;;;5011091;28;20539;-68
2021/08/31 12:08:29;;;;;;;30.43;28.57;;;20.10;70.80;;;;;;5005812;28;20509;-68
2021/08/31 12:10:56;;;;;;;33.67;31.67;;;20.10;71.40;;;;;;5004004;28;20460;-68
2021/08/31 12:13:25;;;;;;;33.43;31.43;;;20.20;71.50;;;;;;5003010;28;20540;-68
2021/08/31 12:15:56;;;;;;;30.30;28.57;;;20.40;71.30;;;;;;5002411;28;20468;-68
2021/08/31 12:18:25;;;;;;;30.87;28.87;;;20.70;70.50;;;;;;4992038;28;20485;-68
2021/08/31 12:20:56;;;;;;;32.30;30.30;;;20.70;70.20;;;;;;4997568;28;20917;-68
2021/08/31 12:23:32;;;;;;;31.57;29.77;;;20.90;69.60;;;;;;4994489;28;20457;-68
2021/08/31 12:25:59;;;;;;;32.90;31.00;;;21.10;69.30;;;;;;5003107;28;20460;-68
2021/08/31 12:28:26;;;;;;;30.63;28.73;;;21.20;68.50;;;;;;5006259;28;20469;-68
2021/08/31 12:30:54;;;;;;;32.60;30.70;;;21.10;67.90;;;;;;4998550;28;20456;-68
2021/08/31 12:33:25;;;;;;;33.00;31.00;;;21.10;68.20;;;;;;5009530;28;21188;-68
2021/08/31 12:36:02;;;;;;;32.63;30.60;;;21.10;68.40;;;;;;4995773;28;20468;-68
2021/08/31 12:38:34;;;;;;;31.23;29.33;;;21.20;68.00;;;;;;4996064;28;20487;-68